Map

Track Data

SID SEASON NUMBER BASIN SUBBASIN NAME ISO_TIME NATURE LAT LON WMO_WIND WMO_PRES WMO_AGENCY TRACK_TYPE DIST2LAND LANDFALL IFLAG USA_AGENCY USA_ATCF_ID USA_LAT USA_LON USA_RECORD USA_STATUS USA_WIND USA_PRES USA_SSHS USA_R34_NE USA_R34_SE USA_R34_SW USA_R34_NW USA_R50_NE USA_R50_SE USA_R50_SW USA_R50_NW USA_R64_NE USA_R64_SE USA_R64_SW USA_R64_NW USA_POCI USA_ROCI USA_RMW USA_EYE TOKYO_LAT TOKYO_LON TOKYO_GRADE TOKYO_WIND TOKYO_PRES TOKYO_R50_DIR TOKYO_R50_LONG TOKYO_R50_SHORT TOKYO_R30_DIR TOKYO_R30_LONG TOKYO_R30_SHORT TOKYO_LAND CMA_LAT CMA_LON CMA_CAT CMA_WIND CMA_PRES HKO_LAT HKO_LON HKO_CAT HKO_WIND HKO_PRES NEWDELHI_LAT NEWDELHI_LON NEWDELHI_GRADE NEWDELHI_WIND NEWDELHI_PRES NEWDELHI_CI NEWDELHI_DP NEWDELHI_POCI REUNION_LAT REUNION_LON REUNION_TYPE REUNION_WIND REUNION_PRES REUNION_TNUM REUNION_CI REUNION_RMW REUNION_R34_NE REUNION_R34_SE REUNION_R34_SW REUNION_R34_NW REUNION_R50_NE REUNION_R50_SE REUNION_R50_SW REUNION_R50_NW REUNION_R64_NE REUNION_R64_SE REUNION_R64_SW REUNION_R64_NW BOM_LAT BOM_LON BOM_TYPE BOM_WIND BOM_PRES BOM_TNUM BOM_CI BOM_RMW BOM_R34_NE BOM_R34_SE BOM_R34_SW BOM_R34_NW BOM_R50_NE BOM_R50_SE BOM_R50_SW BOM_R50_NW BOM_R64_NE BOM_R64_SE BOM_R64_SW BOM_R64_NW BOM_ROCI BOM_POCI BOM_EYE BOM_POS_METHOD BOM_PRES_METHOD NADI_LAT NADI_LON NADI_CAT NADI_WIND NADI_PRES WELLINGTON_LAT WELLINGTON_LON WELLINGTON_WIND WELLINGTON_PRES DS824_LAT DS824_LON DS824_STAGE DS824_WIND DS824_PRES TD9636_LAT TD9636_LON TD9636_STAGE TD9636_WIND TD9636_PRES TD9635_LAT TD9635_LON TD9635_WIND TD9635_PRES TD9635_ROCI NEUMANN_LAT NEUMANN_LON NEUMANN_CLASS NEUMANN_WIND NEUMANN_PRES MLC_LAT MLC_LON MLC_CLASS MLC_WIND MLC_PRES USA_GUST BOM_GUST BOM_GUST_PER REUNION_GUST REUNION_GUST_PER USA_SEAHGT USA_SEARAD_NE USA_SEARAD_SE USA_SEARAD_SW USA_SEARAD_NW STORM_SPEED STORM_DIR
1885060S15069 1885 13 SI MM NOT_NAMED 1885-03-01 06:00:00 NR -14.6000 69.2000 main 1366 1346 __________O___ -1 -14.6000 69.2000 7 4 218
1885060S15069 1885 13 SI MM NOT_NAMED 1885-03-01 09:00:00 NR -14.7704 69.0658 main 1346 1322 __________P___ -1 -14.7704 69.0658 7 4 217
1885060S15069 1885 13 SI MM NOT_NAMED 1885-03-01 12:00:00 NR -14.9426 68.9352 main 1322 1301 __________P___ -1 -14.9426 68.9352 7 4 215
1885060S15069 1885 13 SI MM NOT_NAMED 1885-03-01 15:00:00 NR -15.1185 68.8120 main 1301 1282 __________P___ -1 -15.1185 68.8120 7 4 213
1885060S15069 1885 13 SI MM NOT_NAMED 1885-03-01 18:00:00 NR -15.3000 68.7000 main 1282 1262 __________O___ -1 -15.3000 68.7000 7 4 209
1885060S15069 1885 13 SI MM NOT_NAMED 1885-03-01 21:00:00 NR -15.4887 68.6008 main 1262 1242 __________P___ -1 -15.4887 68.6008 7 4 206
1885060S15069 1885 13 SI MM NOT_NAMED 1885-03-02 00:00:00 NR -15.6849 68.5073 main 1242 1223 __________P___ -1 -15.6849 68.5073 7 4 205
1885060S15069 1885 13 SI MM NOT_NAMED 1885-03-02 03:00:00 NR -15.8887 68.4101 main 1223 1204 __________P___ -1 -15.8887 68.4101 7 5 205
1885060S15069 1885 13 SI MM NOT_NAMED 1885-03-02 06:00:00 NR -16.1000 68.3000 main 1204 1185 __________O___ -1 -16.1000 68.3000 7 5 209
1885060S15069 1885 13 SI MM NOT_NAMED 1885-03-02 09:00:00 NR -16.3219 68.1604 main 1185 1156 __________P___ -1 -16.3219 68.1604 7 5 212
1885060S15069 1885 13 SI MM NOT_NAMED 1885-03-02 12:00:00 NR -16.5500 68.0076 main 1152 1134 __________P___ -1 -16.5500 68.0076 7 5 213
1885060S15069 1885 13 SI MM NOT_NAMED 1885-03-02 15:00:00 NR -16.7782 67.8510 main 1134 1106 __________P___ -1 -16.7782 67.8510 7 5 213
1885060S15069 1885 13 SI MM NOT_NAMED 1885-03-02 18:00:00 NR -17.0000 67.7000 main 1106 1088 __________O___ -1 -17.0000 67.7000 7 5 213
1885060S15069 1885 13 SI MM NOT_NAMED 1885-03-02 21:00:00 NR -17.2153 67.5596 main 1088 1060 __________P___ -1 -17.2153 67.5596 7 5 212
1885060S15069 1885 13 SI MM NOT_NAMED 1885-03-03 00:00:00 NR -17.4225 67.4275 main 1060 1043 __________P___ -1 -17.4225 67.4275 7 5 211
1885060S15069 1885 13 SI MM NOT_NAMED 1885-03-03 03:00:00 NR -17.6184 67.3065 main 1043 1026 __________P___ -1 -17.6184 67.3065 7 4 210
1885060S15069 1885 13 SI MM NOT_NAMED 1885-03-03 06:00:00 NR -17.8000 67.2000 main 1026 1010 __________O___ -1 -17.8000 67.2000 7 4 208
1885060S15069 1885 13 SI MM NOT_NAMED 1885-03-03 09:00:00 NR -17.9643 67.1105 main 1010 996 __________P___ -1 -17.9643 67.1105 7 4 206
1885060S15069 1885 13 SI MM NOT_NAMED 1885-03-03 12:00:00 NR -18.1149 67.0348 main 996 990 __________P___ -1 -18.1149 67.0348 7 3 205
1885060S15069 1885 13 SI MM NOT_NAMED 1885-03-03 15:00:00 NR -18.2581 66.9668 main 990 977 __________P___ -1 -18.2581 66.9668 7 3 204
1885060S15069 1885 13 SI MM NOT_NAMED 1885-03-03 18:00:00 NR -18.4000 66.9000 main 977 965 __________O___ -1 -18.4000 66.9000 7 3 205
1885060S15069 1885 13 SI MM NOT_NAMED 1885-03-03 21:00:00 NR -18.5419 66.8249 main 965 960 __________P___ -1 -18.5419 66.8249 7 3 207
1885060S15069 1885 13 SI MM NOT_NAMED 1885-03-04 00:00:00 NR -18.6850 66.7499 main 949 947 __________P___ -1 -18.6850 66.7499 7 3 206
1885060S15069 1885 13 SI MM NOT_NAMED 1885-03-04 03:00:00 NR -18.8356 66.6749 main 947 932 __________P___ -1 -18.8356 66.6749 7 3 204
1885060S15069 1885 13 SI MM NOT_NAMED 1885-03-04 06:00:00 NR -19.0000 66.6000 main 932 918 __________O___ -1 -19.0000 66.6000 7 4 202
1885060S15069 1885 13 SI MM NOT_NAMED 1885-03-04 09:00:00 NR -19.1937 66.5250 main 918 915 __________P___ -1 -19.1937 66.5250 7 4 199
1885060S15069 1885 13 SI MM NOT_NAMED 1885-03-04 12:00:00 NR -19.4000 66.4500 main 915 902 __________P___ -1 -19.4000 66.4500 7 4 199
1885060S15069 1885 13 SI MM NOT_NAMED 1885-03-04 15:00:00 NR -19.6062 66.3750 main 902 889 __________P___ -1 -19.6062 66.3750 7 4 199
1885060S15069 1885 13 SI MM NOT_NAMED 1885-03-04 18:00:00 NR -19.8000 66.3000 main 889 878 __________O___ -1 -19.8000 66.3000 7 4 201
1885060S15069 1885 13 SI MM NOT_NAMED 1885-03-04 21:00:00 NR -19.9562 66.2289 main 877 876 __________P___ -1 -19.9562 66.2289 7 3 203
1885060S15069 1885 13 SI MM NOT_NAMED 1885-03-05 00:00:00 NR -20.1000 66.1573 main 876 865 __________P___ -1 -20.1000 66.1573 7 3 206
1885060S15069 1885 13 SI MM NOT_NAMED 1885-03-05 03:00:00 NR -20.2437 66.0820 main 865 854 __________P___ -1 -20.2437 66.0820 7 3 207
1885060S15069 1885 13 SI MM NOT_NAMED 1885-03-05 06:00:00 NR -20.4000 66.0000 main 854 844 __________O___ -1 -20.4000 66.0000 7 4 205
1885060S15069 1885 13 SI MM NOT_NAMED 1885-03-05 09:00:00 NR -20.5938 65.9032 main 844 834 __________P___ -1 -20.5938 65.9032 7 4 205
1885060S15069 1885 13 SI MM NOT_NAMED 1885-03-05 12:00:00 NR -20.8000 65.8001 main 834 824 __________P___ -1 -20.8000 65.8001 7 5 205
1885060S15069 1885 13 SI MM NOT_NAMED 1885-03-05 15:00:00 NR -21.0063 65.6969 main 825 816 __________P___ -1 -21.0063 65.6969 7 4 205
1885060S15069 1885 13 SI MM NOT_NAMED 1885-03-05 18:00:00 NR -21.2000 65.6000 main 817 807 __________O___ -1 -21.2000 65.6000 7 4 207
1885060S15069 1885 13 SI MM NOT_NAMED 1885-03-05 21:00:00 NR -21.3400 65.5176 main 807 800 __________P___ -1 -21.3400 65.5176 7 3 209
1885060S15069 1885 13 SI MM NOT_NAMED 1885-03-06 00:00:00 NR -21.4700 65.4422 main 800 800 __________P___ -1 -21.4700 65.4422 7 3 206
1885060S15069 1885 13 SI MM NOT_NAMED 1885-03-06 03:00:00 NR -21.6150 65.3707 main 802 793 __________P___ -1 -21.6150 65.3707 7 4 202
1885060S15069 1885 13 SI MM NOT_NAMED 1885-03-06 06:00:00 NR -21.8000 65.3000 main 795 790 __________O___ -1 -21.8000 65.3000 7 5 197
1885060S15069 1885 13 SI MM NOT_NAMED 1885-03-06 09:00:00 NR -22.0528 65.2250 main 792 792 __________P___ -1 -22.0528 65.2250 7 6 194
1885060S15069 1885 13 SI MM NOT_NAMED 1885-03-06 12:00:00 NR -22.3475 65.1500 main 798 788 __________P___ -1 -22.3475 65.1500 7 6 192
1885060S15069 1885 13 SI MM NOT_NAMED 1885-03-06 15:00:00 NR -22.6684 65.0750 main 801 795 __________P___ -1 -22.6684 65.0750 7 7 192
1885060S15069 1885 13 SI MM NOT_NAMED 1885-03-06 18:00:00 NR -23.0000 65.0000 main 802 801 __________O___ -1 -23.0000 65.0000 7 7 192
1885060S15069 1885 13 SI MM NOT_NAMED 1885-03-06 21:00:00 NR -23.3294 64.9251 main 805 805 __________P___ -1 -23.3294 64.9251 7 7 192
1885060S15069 1885 13 SI MM NOT_NAMED 1885-03-07 00:00:00 NR -23.6550 64.8503 main 823 813 __________P___ -1 -23.6550 64.8503 7 7 192
1885060S15069 1885 13 SI MM NOT_NAMED 1885-03-07 03:00:00 NR -23.9781 64.7752 main 828 824 __________P___ -1 -23.9781 64.7752 7 7 192
1885060S15069 1885 13 SI MM NOT_NAMED 1885-03-07 06:00:00 NR -24.3000 64.7000 main 835 __________O___ -1 -24.3000 64.7000 7 7 192

About IBTrACS Database

This database is a web-friendly format of International Best Track Archive for Climate Stewardship (IBTrACS), a global best track data archive curated by NOAA dating back to 1842.

Updated: 2021-11-26